Taichung Airport

Airport
ICAO code: 
RCMQ
IATA Code: 
RMQ
Summary
ICAO Region: 
APAC
Territory: 
Location: 
Taichung, Central Taiwan
Serving: 
Taichung
Elevation: 
663 ft
Coordinates: 
Aerial View: 
24° 15' 53.486" N, 120° 37' 29.863" E
Airport GND: 
Foreign Object Debris
Airport RI: 
Runway Misidentification
Airport WX: 
Tropical Revolving Storm
Metar
Observation
RCMQ 170130Z 01014KT 8000 BKN006 BKN016 17/14 Q1020 NOSIG RMK A3013 APCH CLD BKN006
Station
Wuchia Observatory
Date/Time
2022-01-17 01:30:00
Wind direction
10°
Wind speed
14 kts
Lowest cloud amount
broken clouds
Temperature
17°C
Dew point
14°C
Humidity
82%
QNH
1020 hPa
Weather condition
n/a

Taichung Airport, commonly known as Taichung Ching Chuang Kang Airport, is an airport located in Taichung County, Taiwan for both commercial and military purposes.

Climatology

Humid Sub-tropical climate (Köppen climate classification Cwa) - Hot humid summers and cooler winter. Significant precipitation in all seasons but drier in the winter.

Occasional Typhoons coming from South China Sea.

Runways

Designator Length Width Surface Rops
18/36 3658 45 CON Yes/Yes
Airport map: 
Aerial View: 

SKYbrary Partners:

Safety knowledge contributed by: